Terminal Aerodrome Forecast
Issued by NWS Newport/Morehead City, NC

Home | Current Version | Previous Version | Text Only | Print | Product List | Glossary On
Versions: 1 2 3 4 5 6 7 8 9 10 11 12 13 14 15 16 17 18 19
000
FTUS42 KMHX 300559 CCA
TAFEWN
TAF COR
KEWN 300559Z 3006/0106 20006KT P6SM SCT007 OVC012
     FM301500 20010KT P6SM SCT040
     FM010500 19008KT P6SM BKN015=

USA.gov is the U.S. government's official web portal to all federal, state and local government web resources and services.